Time;durP1;ratioP1;P1;durP2;ratioP2;P2;SDS_P1;SDS_P2;PMS_P1;PMS_P2;Temp;Humidity;BMP_temperature;BMP_pressure;BME280_temperature;BME280_humidity;BME280_pressure;Samples;Min_cycle;Max_cycle;Signal;HPM_P1;HPM_P2
2022/02/01 04:31:18;;;;;;;18.03;4.77;;;;;;;7.45;56.85;99064.03;7988643;23;20278;-86
2022/02/01 04:34:40;;;;;;;12.67;5.27;;;;;;;8.01;56.84;99111.03;6969752;28;20213;-87
2022/02/01 04:38:02;;;;;;;13.70;4.33;;;;;;;7.73;56.29;99093.81;6951945;28;20232;-86
2022/02/01 04:41:24;;;;;;;17.63;4.67;;;;;;;8.11;55.91;99136.59;6952758;28;20603;-86
2022/02/01 04:44:46;;;;;;;11.67;4.33;;;;;;;8.34;55.79;99139.28;6946614;28;20202;-84
2022/02/01 04:48:10;;;;;;;14.47;4.87;;;;;;;8.58;55.26;99137.19;6951758;28;20229;-84
2022/02/01 04:51:31;;;;;;;11.67;3.97;;;;;;;7.94;56.17;99129.72;6968395;28;20235;-83
2022/02/01 04:54:53;;;;;;;16.73;3.57;;;;;;;7.91;55.24;99089.78;6972678;28;20205;-84
2022/02/01 04:58:17;;;;;;;16.47;3.93;;;;;;;7.65;55.37;99089.34;6976477;28;20207;-84
2022/02/01 05:01:38;;;;;;;13.93;3.77;;;;;;;7.80;54.54;99121.59;6979503;28;20890;-85
2022/02/01 05:05:01;;;;;;;14.77;4.93;;;;;;;7.89;54.06;99124.03;6977963;28;20204;-84
2022/02/01 05:08:24;;;;;;;10.80;3.57;;;;;;;7.38;53.52;99151.56;6978661;28;20199;-84
2022/02/01 05:11:48;;;;;;;9.27;3.53;;;;;;;7.78;52.89;99156.66;6978765;28;20251;-84
2022/02/01 05:15:10;;;;;;;10.83;3.93;;;;;;;7.71;52.49;99171.00;6978061;28;20424;-84
2022/02/01 05:18:39;;;;;;;13.13;3.70;;;;;;;8.08;52.72;99177.25;6978211;28;20206;-83
2022/02/01 05:22:06;;;;;;;14.17;3.50;;;;;;;7.60;52.61;99174.91;6978356;28;20218;-84
2022/02/01 05:25:30;;;;;;;13.27;3.73;;;;;;;7.83;52.27;99175.75;6977793;28;20264;-83
2022/02/01 05:28:51;;;;;;;12.03;3.60;;;;;;;6.84;53.38;99128.38;6979893;28;20409;-84
2022/02/01 05:32:25;;;;;;;7.73;3.57;;;;;;;7.13;52.75;99182.19;6979923;28;20226;-84
2022/02/01 05:35:47;;;;;;;9.77;3.90;;;;;;;7.81;52.08;99201.97;6975681;28;20236;-84
2022/02/01 05:39:18;;;;;;;14.97;4.00;;;;;;;8.00;51.92;99198.78;6976073;28;20212;-85
2022/02/01 05:42:45;;;;;;;14.73;3.90;;;;;;;8.50;51.24;99199.09;6975434;28;20222;-85
2022/02/01 05:46:06;;;;;;;11.80;4.10;;;;;;;8.21;52.01;99182.03;6973793;28;20741;-84
2022/02/01 05:49:28;;;;;;;12.87;4.33;;;;;;;8.26;53.02;99203.84;6975680;28;20205;-84
2022/02/01 05:52:50;;;;;;;10.10;3.10;;;;;;;7.89;52.97;99206.44;6974662;28;20222;-85
2022/02/01 05:56:13;;;;;;;13.27;4.10;;;;;;;7.49;53.04;99110.91;6975389;28;20209;-85
2022/02/01 06:03:13;;;;;;;10.57;3.20;;;;;;;8.02;52.03;99179.81;6967112;28;20605;-84
2022/02/01 06:06:34;;;;;;;14.70;3.70;;;;;;;8.14;51.13;99173.81;6977806;28;20229;-84
2022/02/01 06:09:57;;;;;;;11.93;3.60;;;;;;;7.74;51.78;99179.53;6974113;28;20211;-84
2022/02/01 06:13:23;;;;;;;12.73;3.90;;;;;;;8.11;51.23;99202.91;6976271;28;20236;-83
2022/02/01 06:16:45;;;;;;;16.67;3.70;;;;;;;8.05;51.93;99217.03;6978189;28;20215;-82
2022/02/01 06:20:09;;;;;;;17.23;4.13;;;;;;;7.87;52.88;99217.34;6978653;28;20203;-84
2022/02/01 06:23:31;;;;;;;13.43;3.57;;;;;;;7.85;53.43;99200.56;6978656;28;20232;-83
2022/02/01 06:26:52;;;;;;;17.00;4.37;;;;;;;7.44;54.03;99193.81;6983250;28;20230;-88
2022/02/01 06:30:15;;;;;;;11.20;3.60;;;;;;;7.24;53.69;99176.47;6983188;28;20219;-85
2022/02/01 06:34:21;;;;;;;15.90;4.60;;;;;;;7.33;53.64;99234.44;6988196;28;20186;-88
2022/02/01 06:51:28;;;;;;;14.40;3.90;;;;;;;7.50;54.03;99265.53;6978527;28;20416;-88
2022/02/01 06:54:52;;;;;;;9.47;3.33;;;;;;;6.73;54.32;99230.56;6983624;28;20206;-88
2022/02/01 06:58:16;;;;;;;15.70;4.40;;;;;;;7.23;53.94;99292.78;6978467;28;20209;-87
2022/02/01 07:01:37;;;;;;;13.60;3.97;;;;;;;7.42;53.87;99284.34;6980846;28;20685;-88
2022/02/01 07:05:24;;;;;;;17.50;4.27;;;;;;;7.73;53.11;99298.59;6971670;28;20677;-86
2022/02/01 07:08:48;;;;;;;19.37;3.83;;;;;;;7.35;53.15;99296.78;6966082;28;20221;-89
2022/02/01 07:12:12;;;;;;;11.67;3.90;;;;;;;7.06;52.92;99250.94;6960623;28;20216;-88
2022/02/01 07:15:34;;;;;;;21.90;4.27;;;;;;;7.20;53.18;99281.56;6962465;28;20203;-85
2022/02/01 07:19:23;;;;;;;12.93;3.97;;;;;;;6.95;51.70;99181.59;6963832;28;20191;-89
2022/02/01 07:22:47;;;;;;;14.00;3.77;;;;;;;7.09;52.50;99221.13;6963254;28;20230;-87
2022/02/01 07:26:08;;;;;;;11.27;3.40;;;;;;;6.97;53.08;99280.63;6968750;28;20311;-85
2022/02/01 07:29:31;;;;;;;8.73;3.53;;;;;;;7.75;51.77;99293.91;6963577;28;20200;-86
2022/02/01 07:32:54;;;;;;;17.93;3.73;;;;;;;7.13;51.87;99259.97;6966634;28;20250;-87
2022/02/01 07:36:17;;;;;;;10.43;3.80;;;;;;;6.66;52.15;99228.75;6965735;28;20209;-86
2022/02/01 07:39:39;;;;;;;11.23;3.30;;;;;;;6.77;50.93;99217.69;6971713;28;20214;-86
2022/02/01 07:43:03;;;;;;;7.67;3.60;;;;;;;7.36;50.37;99239.44;6972864;28;20286;-87
2022/02/01 07:46:30;;;;;;;9.33;3.50;;;;;;;6.78;50.23;99136.28;6980834;28;20585;-87
2022/02/01 07:49:52;;;;;;;9.23;3.53;;;;;;;7.24;51.29;99274.88;6993940;28;20209;-87
2022/02/01 07:53:14;;;;;;;11.33;3.20;;;;;;;7.71;51.20;99310.56;6989973;28;20232;-87
2022/02/01 07:56:35;;;;;;;7.37;3.47;;;;;;;7.85;49.86;99256.94;6990883;28;20212;-87
2022/02/01 07:59:57;;;;;;;11.30;4.77;;;;;;;8.18;48.94;99268.31;6984482;28;20196;-87
2022/02/01 08:03:21;;;;;;;6.17;3.03;;;;;;;7.41;49.27;99220.97;6966086;28;20234;-85
2022/02/01 08:06:42;;;;;;;12.13;3.60;;;;;;;7.80;49.80;99277.28;6976423;28;20646;-85
2022/02/01 08:10:09;;;;;;;13.43;3.30;;;;;;;8.22;49.04;99259.75;6970767;28;20204;-85
2022/02/01 08:17:21;;;;;;;13.80;3.00;;;;;;;7.85;48.56;99240.00;6950854;28;20198;-86
2022/02/01 08:20:48;;;;;;;10.63;3.90;;;;;;;7.48;49.40;99218.44;6975855;28;20224;-85
2022/02/01 08:24:28;;;;;;;12.10;4.30;;;;;;;7.64;48.88;99213.81;6968394;28;20213;-84
2022/02/01 08:31:35;;;;;;;8.90;3.27;;;;;;;8.06;48.37;99289.38;6972196;28;20234;-87
2022/02/01 08:35:21;;;;;;;10.67;3.83;;;;;;;8.31;48.09;99315.09;6947122;28;20198;-88
2022/02/01 08:38:44;;;;;;;7.87;3.43;;;;;;;7.80;48.98;99216.41;6948830;28;20700;-87
2022/02/01 08:42:07;;;;;;;7.10;3.27;;;;;;;8.73;48.02;99323.50;6953671;28;20230;-87
2022/02/01 08:45:43;;;;;;;8.03;3.57;;;;;;;8.50;49.19;99338.81;6960547;28;20245;-86
2022/02/01 08:49:32;;;;;;;7.37;3.60;;;;;;;8.25;49.15;99344.53;6975020;28;20228;-86
2022/02/01 08:52:57;;;;;;;11.27;3.00;;;;;;;8.03;48.85;99299.63;6975935;28;20285;-87
2022/02/01 09:00:05;;;;;;;15.07;4.03;;;;;;;7.56;49.71;99264.00;6974926;28;20182;-88
2022/02/01 09:03:27;;;;;;;10.53;3.60;;;;;;;7.72;50.57;99248.63;7008040;28;20282;-89
2022/02/01 09:06:49;;;;;;;9.00;3.50;;;;;;;7.80;48.86;99205.66;7002593;28;20223;-88
2022/02/01 09:10:11;;;;;;;8.27;3.77;;;;;;;8.15;49.30;99317.88;6983415;28;20211;-86
2022/02/01 09:13:34;;;;;;;14.23;4.73;;;;;;;8.38;48.92;99285.66;6981130;28;20214;-88
2022/02/01 09:16:56;;;;;;;8.03;3.13;;;;;;;7.82;49.33;99235.84;6996607;28;20194;-88
2022/02/01 09:20:17;;;;;;;9.90;3.23;;;;;;;8.14;48.72;99251.72;6981950;28;20206;-89
2022/02/01 09:23:39;;;;;;;6.00;3.20;;;;;;;7.86;49.19;99188.00;6993711;28;20265;-89
2022/02/01 09:31:21;;;;;;;9.50;3.30;;;;;;;7.42;49.90;99168.97;6989651;28;20218;-87
2022/02/01 09:35:04;;;;;;;8.17;3.00;;;;;;;8.03;49.89;99230.66;7002389;28;20196;-87
2022/02/01 09:38:30;;;;;;;14.17;3.37;;;;;;;8.28;48.26;99209.84;6995906;28;20210;-87
2022/02/01 09:46:21;;;;;;;9.27;5.77;;;;;;;7.37;51.14;99144.53;6911456;28;20762;-87
2022/02/01 09:49:46;;;;;;;18.07;10.53;;;;;;;8.15;50.21;99156.72;6928911;28;20203;-88
2022/02/01 09:53:08;;;;;;;8.07;4.73;;;;;;;8.64;50.24;99256.53;6919612;28;20282;-87
2022/02/01 09:56:31;;;;;;;9.63;3.83;;;;;;;8.80;49.87;99281.44;6902689;28;20205;-86
2022/02/01 10:00:16;;;;;;;9.93;3.30;;;;;;;9.13;49.19;99290.84;6889386;28;20218;-86
2022/02/01 10:12:35;;;;;;;7.63;2.90;;;;;;;8.30;49.03;99226.63;6884809;28;20267;-87
2022/02/01 10:16:12;;;;;;;10.50;3.00;;;;;;;8.01;49.28;99141.38;6902955;28;20207;-87
2022/02/01 10:19:49;;;;;;;7.20;3.30;;;;;;;8.28;49.40;99162.34;6896984;28;20238;-91
2022/02/01 10:23:38;;;;;;;7.87;2.83;;;;;;;8.33;48.27;99138.47;6963438;28;20245;-85
2022/02/01 10:27:13;;;;;;;9.00;2.93;;;;;;;9.26;47.51;99218.38;6963570;28;20321;-86
2022/02/01 10:34:29;;;;;;;6.00;2.70;;;;;;;9.07;46.76;99182.16;6955935;28;20233;-79
2022/02/01 10:37:58;;;;;;;8.53;3.20;;;;;;;9.84;45.94;99266.75;6955411;28;20191;-81
2022/02/01 10:41:20;;;;;;;9.00;3.50;;;;;;;9.93;45.31;99271.84;6933468;28;20225;-81
2022/02/01 10:44:44;;;;;;;7.23;2.90;;;;;;;9.03;46.28;99193.47;6933108;28;20221;-80
2022/02/01 10:48:24;;;;;;;8.67;3.43;;;;;;;9.10;46.40;99194.41;6926959;28;20617;-93
2022/02/01 10:51:47;;;;;;;6.30;2.37;;;;;;;8.87;47.37;99230.44;6912484;28;20813;-89
2022/02/01 10:55:16;;;;;;;4.90;2.43;;;;;;;8.81;48.21;99271.50;6903636;28;20221;-92
2022/02/01 10:58:44;;;;;;;8.10;2.90;;;;;;;8.96;47.80;99197.91;6925559;28;20216;-88
2022/02/01 11:02:08;;;;;;;6.97;3.40;;;;;;;7.65;48.23;99027.63;6925868;28;20214;-80
2022/02/01 11:05:30;;;;;;;8.03;2.97;;;;;;;8.56;49.17;99249.41;6925098;28;20229;-87
2022/02/01 11:08:56;;;;;;;8.53;4.00;;;;;;;7.48;49.86;99087.78;6926432;28;20228;-87
2022/02/01 11:12:23;;;;;;;8.50;3.60;;;;;;;8.62;49.56;99218.28;6925369;28;20273;-87
2022/02/01 11:16:04;;;;;;;3.87;2.33;;;;;;;7.87;49.46;99013.34;6925678;28;20223;-86
2022/02/01 11:19:27;;;;;;;5.60;3.10;;;;;;;8.65;49.13;99188.31;6925067;28;20219;-81
2022/02/01 11:22:54;;;;;;;3.20;2.73;;;;;;;8.48;51.14;99178.78;6923370;28;20224;-80
2022/02/01 11:26:25;;;;;;;5.13;2.70;;;;;;;7.53;49.90;99034.44;6924484;28;20227;-80
2022/02/01 11:30:03;;;;;;;8.83;2.87;;;;;;;7.53;49.43;99018.34;6925191;28;20346;-80
2022/02/01 11:33:36;;;;;;;9.17;2.60;;;;;;;8.21;50.39;99088.88;6923181;28;20242;-80
2022/02/01 11:37:03;;;;;;;5.00;2.50;;;;;;;7.78;47.97;98967.97;6922422;28;20232;-80
2022/02/01 11:40:25;;;;;;;4.30;2.70;;;;;;;8.28;49.30;99035.25;6923824;28;20660;-80
2022/02/01 11:43:48;;;;;;;5.53;2.87;;;;;;;7.37;48.75;98969.38;6922588;28;20232;-79
2022/02/01 11:47:11;;;;;;;4.27;2.50;;;;;;;8.31;49.46;99121.66;6921627;28;20319;-79
2022/02/01 11:50:46;;;;;;;8.27;2.80;;;;;;;8.02;49.59;99070.56;6924958;28;20232;-79
2022/02/01 11:54:10;;;;;;;5.33;2.63;;;;;;;8.74;48.59;99044.78;6924549;28;20234;-79
2022/02/01 11:57:33;;;;;;;6.83;2.63;;;;;;;7.97;49.97;99059.56;6924017;28;20234;-80
2022/02/01 12:00:55;;;;;;;9.00;3.60;;;;;;;8.33;49.64;99040.91;6909188;28;20211;-79
2022/02/01 12:04:18;;;;;;;6.30;2.80;;;;;;;8.33;49.28;99024.78;6914796;28;20300;-79
2022/02/01 12:07:52;;;;;;;5.80;2.83;;;;;;;8.61;50.64;99083.03;6925075;28;20234;-78
2022/02/01 12:11:15;;;;;;;4.93;2.13;;;;;;;7.17;49.33;98891.28;6924550;28;20207;-80
2022/02/01 12:14:37;;;;;;;7.47;3.37;;;;;;;7.72;50.29;98999.03;6924422;28;20226;-80
2022/02/01 12:18:09;;;;;;;6.10;2.57;;;;;;;7.74;50.21;99064.13;6925669;28;20574;-80
2022/02/01 12:21:36;;;;;;;4.37;2.73;;;;;;;7.64;50.75;99012.56;6897985;28;20595;-80
2022/02/01 12:25:02;;;;;;;10.70;3.00;;;;;;;7.80;50.07;98969.47;6919304;28;20320;-80
2022/02/01 12:28:28;;;;;;;5.17;3.07;;;;;;;6.71;50.72;98816.50;6922629;28;20224;-80
2022/02/01 12:31:52;;;;;;;6.80;3.20;;;;;;;8.01;50.73;98976.78;6896205;28;20208;-80
2022/02/01 12:35:17;;;;;;;5.53;2.60;;;;;;;8.28;50.13;98973.47;6919010;28;20226;-80
2022/02/01 12:38:40;;;;;;;6.53;2.67;;;;;;;8.09;49.95;98933.72;6920967;28;20208;-80
2022/02/01 12:42:11;;;;;;;6.13;2.50;;;;;;;7.54;50.51;98896.59;6924353;28;20245;-80
2022/02/01 12:45:51;;;;;;;4.23;2.47;;;;;;;8.48;50.00;98998.75;6924384;28;20196;-81
2022/02/01 12:49:13;;;;;;;2.97;2.40;;;;;;;7.70;52.13;98947.41;6925199;28;20684;-80
2022/02/01 12:52:35;;;;;;;6.23;2.67;;;;;;;7.27;52.63;98928.56;6925239;28;20214;-80
2022/02/01 12:55:57;;;;;;;4.27;2.10;;;;;;;7.10;51.51;98815.28;6924547;28;20210;-80
2022/02/01 12:59:21;;;;;;;4.83;2.63;;;;;;;7.43;50.93;98829.19;6918424;28;20299;-79
2022/02/01 13:02:48;;;;;;;6.23;3.07;;;;;;;8.48;50.37;98931.59;6927510;28;20204;-80
2022/02/01 13:06:12;;;;;;;5.53;2.60;;;;;;;8.40;49.99;98910.19;6927490;28;20202;-79
2022/02/01 13:13:53;;;;;;;4.13;2.83;;;;;;;8.02;50.95;98901.41;6927521;28;20234;-80
2022/02/01 13:17:16;;;;;;;3.53;2.73;;;;;;;6.88;52.33;98818.84;6929011;28;20349;-79
2022/02/01 13:20:42;;;;;;;6.40;2.83;;;;;;;7.73;50.59;98845.06;6929288;28;20200;-79
2022/02/01 13:24:04;;;;;;;4.03;2.93;;;;;;;7.98;51.31;98885.88;6928603;28;20637;-79
2022/02/01 13:27:26;;;;;;;3.70;2.00;;;;;;;6.73;52.42;98766.25;6928419;28;20241;-79
2022/02/01 13:30:47;;;;;;;4.87;2.47;;;;;;;8.09;51.56;98888.09;6927311;28;20206;-79
2022/02/01 13:34:13;;;;;;;4.20;2.50;;;;;;;8.26;50.79;98892.25;6927476;28;20226;-79
2022/02/01 13:37:37;;;;;;;4.53;2.53;;;;;;;7.77;50.80;98834.81;6927752;28;20209;-79
2022/02/01 13:41:09;;;;;;;4.10;2.40;;;;;;;8.05;52.11;98893.00;6928374;28;20208;-79
2022/02/01 13:44:32;;;;;;;4.03;2.33;;;;;;;6.67;52.58;98705.34;6928114;28;20208;-79
2022/02/01 13:47:53;;;;;;;7.67;3.07;;;;;;;7.88;51.52;98802.94;6927700;28;20317;-80
2022/02/01 13:51:15;;;;;;;3.17;2.50;;;;;;;8.51;50.61;98881.00;6927469;28;20206;-79
2022/02/01 13:54:39;;;;;;;3.73;2.20;;;;;;;8.09;50.27;98845.97;6927669;28;20206;-79
2022/02/01 13:58:03;;;;;;;3.77;2.50;;;;;;;7.29;50.77;98739.66;6928326;28;20661;-79
2022/02/01 14:01:27;;;;;;;6.70;2.60;;;;;;;7.48;52.02;98877.75;6927703;28;20215;-79
2022/02/01 14:04:52;;;;;;;4.97;2.63;;;;;;;6.60;52.92;98755.31;6927993;28;20211;-79
2022/02/01 14:08:26;;;;;;;4.10;2.50;;;;;;;7.06;53.71;98826.53;6927706;28;20717;-79
2022/02/01 14:12:08;;;;;;;3.50;2.60;;;;;;;7.15;53.13;98785.22;6926837;28;20194;-79
2022/02/01 14:26:49;;;;;;;3.80;2.60;;;;;;;6.86;56.36;98846.84;6927620;28;20206;-80
2022/02/01 14:37:44;;;;;;;7.10;2.63;;;;;;;6.17;55.07;98611.44;6927121;28;20563;-80
2022/02/01 14:44:47;;;;;;;6.77;3.07;;;;;;;7.45;54.95;98770.81;6926597;28;20195;-80
2022/02/01 14:48:10;;;;;;;2.70;2.33;;;;;;;7.40;54.90;98789.31;6927148;28;20255;-80
2022/02/01 14:51:36;;;;;;;2.30;2.00;;;;;;;6.95;54.67;98674.25;6926302;28;20202;-81
2022/02/01 14:55:04;;;;;;;3.93;2.47;;;;;;;6.17;55.83;98632.88;6926459;28;20273;-80
2022/02/01 15:13:06;;;;;;;4.17;3.40;;;;;;;6.16;57.80;98601.75;6900055;28;20235;-80
2022/02/01 15:16:29;;;;;;;4.37;3.00;;;;;;;6.41;58.82;98646.84;6898158;28;20205;-81
2022/02/01 15:19:50;;;;;;;4.67;2.90;;;;;;;5.92;58.60;98501.16;6912788;28;20199;-81
2022/02/01 15:23:14;;;;;;;5.40;2.67;;;;;;;6.17;60.00;98655.13;6927456;28;20203;-80
2022/02/01 15:26:35;;;;;;;4.60;2.83;;;;;;;6.91;58.93;98654.16;6925335;28;20225;-81
2022/02/01 15:29:58;;;;;;;6.13;2.60;;;;;;;7.69;57.87;98740.97;6925156;28;20225;-81
2022/02/01 15:33:20;;;;;;;5.93;2.77;;;;;;;7.56;57.70;98716.69;6924920;28;20213;-81
2022/02/01 15:36:41;;;;;;;4.10;3.10;;;;;;;7.77;57.63;98744.38;6922290;28;20210;-81
2022/02/01 15:55:03;;;;;;;7.80;2.27;;;;;;;7.71;56.45;98706.75;6945687;28;20209;-79
2022/02/01 15:58:28;;;;;;;3.00;2.70;;;;;;;7.46;56.99;98690.16;6944473;28;20214;-77
2022/02/01 16:01:54;;;;;;;3.00;2.70;;;;;;;7.23;58.11;98710.06;6925718;28;20714;-87
2022/02/01 16:05:16;;;;;;;4.63;3.20;;;;;;;7.56;58.14;98692.53;6926666;28;20214;-86
2022/02/01 16:08:41;;;;;;;6.57;2.93;;;;;;;7.01;58.68;98641.34;6941497;28;20222;-86
2022/02/01 16:12:06;;;;;;;2.80;2.50;;;;;;;7.30;58.06;98650.13;6948864;28;20248;-87
2022/02/01 16:15:30;;;;;;;13.63;2.70;;;;;;;7.12;59.44;98668.47;6927189;28;20310;-87
2022/02/01 16:18:54;;;;;;;6.50;2.87;;;;;;;6.45;60.29;98565.16;6928029;28;20211;-87
2022/02/01 16:22:15;;;;;;;3.63;2.30;;;;;;;5.08;59.75;98396.34;6925031;28;20214;-82
2022/02/01 16:25:37;;;;;;;3.17;2.53;;;;;;;5.97;60.45;98496.09;6924004;28;20222;-82
2022/02/01 16:28:59;;;;;;;6.77;2.83;;;;;;;6.65;58.31;98542.13;6923195;28;20233;-82
2022/02/01 16:32:22;;;;;;;4.13;2.73;;;;;;;7.24;57.69;98628.63;6922128;28;20254;-82
2022/02/01 16:35:44;;;;;;;2.80;2.30;;;;;;;7.18;56.52;98536.38;6923374;28;20203;-82
2022/02/01 16:39:08;;;;;;;3.53;2.73;;;;;;;7.13;56.06;98489.72;6927761;28;20208;-81
2022/02/01 16:42:32;;;;;;;5.63;2.70;;;;;;;7.68;56.15;98611.38;6928591;28;20216;-76
2022/02/01 16:45:54;;;;;;;3.77;2.57;;;;;;;6.37;58.26;98546.47;6928887;28;20268;-89
2022/02/01 16:49:18;;;;;;;7.57;2.80;;;;;;;5.62;58.46;98402.31;6929027;28;20227;-87
2022/02/01 16:52:45;;;;;;;3.10;2.30;;;;;;;5.44;58.88;98417.88;6929044;28;20202;-88
2022/02/01 16:56:12;;;;;;;2.77;2.40;;;;;;;7.10;57.24;98574.03;6928411;28;20587;-80
2022/02/01 16:59:36;;;;;;;2.67;2.23;;;;;;;7.09;56.67;98525.97;6929622;28;20210;-90
2022/02/01 17:03:01;;;;;;;2.43;2.13;;;;;;;6.89;55.43;98439.16;6931689;28;20649;-93
2022/02/01 17:06:28;;;;;;;2.97;2.30;;;;;;;7.41;55.78;98504.84;6933161;28;20203;-94
2022/02/01 17:09:53;;;;;;;5.37;2.60;;;;;;;7.16;55.66;98513.44;6932796;28;20233;-93
2022/02/01 17:13:19;;;;;;;3.00;2.10;;;;;;;7.50;56.27;98621.72;6930357;28;20238;-79
2022/02/01 17:17:00;;;;;;;2.40;2.20;;;;;;;7.33;55.07;98502.28;6926186;28;20434;-79
2022/02/01 17:24:03;;;;;;;3.83;2.20;;;;;;;8.23;54.78;98632.13;6922569;28;20206;-80
2022/02/01 17:27:25;;;;;;;3.03;2.30;;;;;;;7.91;54.33;98550.25;6917990;28;20204;-79
2022/02/01 17:30:46;;;;;;;3.10;2.20;;;;;;;8.26;55.36;98626.38;6927004;28;20232;-79
2022/02/01 17:34:08;;;;;;;2.40;2.20;;;;;;;7.13;57.46;98536.09;6924490;28;20222;-79
2022/02/01 17:37:30;;;;;;;2.33;2.10;;;;;;;8.29;57.40;98616.06;6929411;28;20323;-79
2022/02/01 17:40:53;;;;;;;2.40;2.30;;;;;;;7.75;59.18;98640.94;6928069;28;20210;-79
2022/02/01 17:44:14;;;;;;;4.47;2.50;;;;;;;6.99;57.83;98375.34;6926623;28;20655;-79
2022/02/01 17:47:36;;;;;;;2.50;2.30;;;;;;;7.05;57.99;98396.00;6926003;28;20196;-79
2022/02/01 17:51:07;;;;;;;2.73;2.17;;;;;;;8.08;57.24;98574.97;6926288;28;20220;-79
2022/02/01 17:54:29;;;;;;;2.03;1.93;;;;;;;7.80;59.78;98587.53;6921615;28;20287;-79
2022/02/01 17:57:52;;;;;;;2.50;2.30;;;;;;;7.08;59.96;98417.91;6926749;28;20227;-80
2022/02/01 18:01:14;;;;;;;2.50;1.93;;;;;;;8.13;60.00;98613.63;6927186;28;20214;-79
2022/02/01 18:04:36;;;;;;;2.87;2.17;;;;;;;8.19;60.04;98618.22;6926228;28;20217;-80
2022/02/01 18:07:58;;;;;;;2.10;2.00;;;;;;;7.50;59.98;98502.84;6926700;28;20207;-79
2022/02/01 18:11:23;;;;;;;1.97;1.87;;;;;;;8.05;59.67;98599.50;6926549;28;20239;-79
2022/02/01 18:14:58;;;;;;;1.90;1.80;;;;;;;7.80;60.54;98582.16;6925317;28;20269;-79
2022/02/01 18:18:22;;;;;;;2.63;1.90;;;;;;;7.63;61.03;98554.78;6926214;28;20214;-79
2022/02/01 18:21:46;;;;;;;2.30;2.20;;;;;;;8.31;59.28;98584.47;6926196;28;20233;-80
2022/02/01 18:25:08;;;;;;;2.43;2.23;;;;;;;7.65;59.30;98484.81;6925845;28;20227;-79
2022/02/01 18:28:31;;;;;;;2.13;1.93;;;;;;;7.69;59.22;98464.63;6926082;28;20694;-79
2022/02/01 18:31:54;;;;;;;2.10;2.00;;;;;;;8.66;58.07;98593.38;6891185;28;20306;-79
2022/02/01 18:35:16;;;;;;;2.50;2.30;;;;;;;6.77;60.79;98412.03;6925616;28;20211;-80
2022/02/01 18:38:40;;;;;;;3.07;2.10;;;;;;;8.11;60.22;98571.88;6925801;28;20228;-79
2022/02/01 18:42:07;;;;;;;2.30;2.10;;;;;;;7.71;59.62;98481.38;6924996;28;20605;-79
2022/02/01 18:45:30;;;;;;;2.60;2.40;;;;;;;8.40;59.59;98609.31;6922626;28;20218;-80
2022/02/01 18:49:02;;;;;;;3.23;2.47;;;;;;;7.96;58.79;98461.09;6919967;28;20228;-79
2022/02/01 18:52:57;;;;;;;2.20;2.07;;;;;;;8.40;59.35;98551.06;6917853;28;20204;-81
2022/02/01 18:56:26;;;;;;;2.00;1.90;;;;;;;7.10;62.03;98482.03;6923027;28;20210;-80
2022/02/01 19:00:05;;;;;;;2.00;1.90;;;;;;;7.71;62.24;98540.41;6924402;28;20345;-79
2022/02/01 19:07:24;;;;;;;2.73;2.53;;;;;;;7.83;61.71;98461.03;6924717;28;20201;-79
2022/02/01 19:14:42;;;;;;;2.37;2.27;;;;;;;8.90;60.90;98572.19;6924359;28;20311;-79
2022/02/01 19:18:04;;;;;;;2.33;2.20;;;;;;;7.70;62.53;98471.63;6925844;28;20208;-79
2022/02/01 19:21:29;;;;;;;2.90;2.20;;;;;;;8.11;63.94;98555.78;6925419;28;20211;-80
2022/02/01 19:24:56;;;;;;;2.10;2.00;;;;;;;7.57;63.85;98442.03;6924805;28;20243;-79
2022/02/01 19:28:19;;;;;;;2.17;2.00;;;;;;;8.91;61.47;98568.47;6924897;28;20206;-80
2022/02/01 19:31:45;;;;;;;2.67;2.47;;;;;;;9.08;61.22;98580.53;6902597;28;20571;-80
2022/02/01 19:35:08;;;;;;;2.60;2.40;;;;;;;7.99;60.90;98402.47;6916584;28;20197;-79
2022/02/01 19:38:32;;;;;;;3.60;3.30;;;;;;;8.89;61.76;98575.09;6924769;28;20204;-79
2022/02/01 19:41:58;;;;;;;3.73;3.00;;;;;;;8.73;61.88;98559.31;6925173;28;20207;-80
2022/02/01 19:45:20;;;;;;;3.53;2.83;;;;;;;9.02;61.96;98582.19;6924964;28;20211;-79
2022/02/01 19:48:43;;;;;;;3.00;2.40;;;;;;;8.96;60.19;98504.16;6924621;28;20225;-80
2022/02/01 19:52:06;;;;;;;2.57;2.40;;;;;;;8.96;60.98;98557.13;6925181;28;20210;-79
2022/02/01 19:55:27;;;;;;;2.50;2.30;;;;;;;8.94;61.20;98535.81;6924525;28;20200;-79
2022/02/01 19:58:53;;;;;;;2.70;2.17;;;;;;;9.28;61.28;98593.03;6925483;28;20212;-79
2022/02/01 20:02:19;;;;;;;1.83;1.70;;;;;;;9.29;60.49;98540.06;6923524;28;20294;-79
2022/02/01 20:05:41;;;;;;;2.00;1.90;;;;;;;8.26;62.06;98474.09;6924444;28;20211;-81
2022/02/01 20:09:09;;;;;;;2.00;1.90;;;;;;;9.20;61.13;98498.22;6924765;28;20231;-80
2022/02/01 20:12:31;;;;;;;2.40;2.10;;;;;;;9.40;61.13;98561.81;6934098;28;20217;-79
2022/02/01 20:16:05;;;;;;;2.30;2.13;;;;;;;8.03;61.44;98341.16;6931041;28;20233;-79
2022/02/01 20:19:27;;;;;;;2.37;2.17;;;;;;;8.41;60.34;98358.47;6933509;28;20206;-80
2022/02/01 20:22:50;;;;;;;3.80;1.80;;;;;;;8.05;61.03;98366.78;6933683;28;20214;-79
2022/02/01 20:26:11;;;;;;;2.30;2.20;;;;;;;8.21;61.99;98404.06;6933450;28;20791;-79
2022/02/01 20:29:39;;;;;;;2.10;2.00;;;;;;;9.44;60.15;98511.94;6930618;28;20231;-79
2022/02/01 20:33:10;;;;;;;1.90;1.80;;;;;;;9.30;59.65;98478.00;6909265;28;20209;-80
2022/02/01 20:36:32;;;;;;;3.33;2.07;;;;;;;9.13;61.08;98566.50;6930641;28;20215;-82
2022/02/01 20:39:57;;;;;;;1.80;1.70;;;;;;;9.11;61.69;98559.44;6915417;28;20209;-82
2022/02/01 20:43:18;;;;;;;2.80;2.07;;;;;;;8.76;62.36;98534.69;6933354;28;20261;-80
2022/02/01 20:46:41;;;;;;;2.20;2.10;;;;;;;8.19;63.74;98507.31;6932242;28;20217;-77
2022/02/01 20:50:04;;;;;;;2.00;1.90;;;;;;;7.99;63.34;98453.47;6933077;28;20255;-79
2022/02/01 20:53:26;;;;;;;2.90;2.20;;;;;;;8.61;62.35;98510.66;6932453;28;20200;-93
2022/02/01 20:56:48;;;;;;;2.00;1.90;;;;;;;8.20;61.92;98428.44;6935751;28;20215;-78
2022/02/01 21:00:13;;;;;;;2.63;2.43;;;;;;;9.43;61.18;98577.56;6932685;28;20202;-80
2022/02/01 21:03:42;;;;;;;2.10;2.00;;;;;;;8.75;61.28;98460.47;6925658;28;20210;-79
2022/02/01 21:07:06;;;;;;;2.07;1.97;;;;;;;8.83;61.69;98544.47;6932874;28;20282;-79
2022/02/01 21:10:28;;;;;;;2.20;2.10;;;;;;;8.91;61.35;98470.88;6932404;28;20577;-80
2022/02/01 21:13:49;;;;;;;3.60;2.33;;;;;;;9.48;61.74;98575.09;6932028;28;20233;-79
2022/02/01 21:17:11;;;;;;;4.03;2.40;;;;;;;9.43;62.45;98563.25;6933076;28;20568;-79
2022/02/01 21:20:34;;;;;;;3.97;2.37;;;;;;;9.93;61.47;98555.47;6932893;28;20206;-79
2022/02/01 21:23:57;;;;;;;2.97;2.77;;;;;;;9.12;61.90;98463.47;6928054;28;20211;-79
2022/02/01 21:27:19;;;;;;;3.17;2.83;;;;;;;9.51;60.67;98490.44;6927457;28;20210;-79
2022/02/01 21:30:41;;;;;;;3.03;2.77;;;;;;;9.41;60.74;98460.41;6928225;28;20235;-79
2022/02/01 21:34:03;;;;;;;3.27;2.97;;;;;;;9.83;59.67;98454.59;6928298;28;20211;-79
2022/02/01 21:37:24;;;;;;;2.70;2.50;;;;;;;9.35;60.80;98496.22;6928243;28;20206;-79
2022/02/01 21:40:48;;;;;;;6.40;4.80;;;;;;;9.89;59.92;98540.78;6926768;28;20227;-79
2022/02/01 21:44:10;;;;;;;5.37;3.77;;;;;;;10.02;59.13;98531.84;6926854;28;20234;-79
2022/02/01 21:47:32;;;;;;;4.43;3.40;;;;;;;9.80;58.83;98482.75;6926326;28;20578;-79
2022/02/01 21:50:53;;;;;;;3.40;3.10;;;;;;;10.07;60.21;98549.09;6926699;28;20239;-79
2022/02/01 21:54:16;;;;;;;4.10;2.57;;;;;;;9.60;58.79;98400.38;6926403;28;20242;-79
2022/02/01 21:57:40;;;;;;;4.50;3.13;;;;;;;9.68;60.21;98487.13;6926790;28;20228;-79
